createdAt,value
2024-02-26T00:02:00.176Z,98570.28
2024-02-26T00:04:26.892Z,98576.78
2024-02-26T00:06:55.601Z,98569.03
2024-02-26T00:09:22.606Z,98563.19
2024-02-26T00:11:49.458Z,98556.09
2024-02-26T00:14:16.669Z,98555.38
2024-02-26T00:16:43.933Z,98579.53
2024-02-26T00:19:10.889Z,98583.25
2024-02-26T00:21:43.463Z,98590.41
2024-02-26T00:24:10.205Z,98580.19
2024-02-26T00:26:37.373Z,98587.31
2024-02-26T00:29:04.512Z,98585.00
2024-02-26T00:31:31.541Z,98587.38
2024-02-26T00:33:58.637Z,98588.97
2024-02-26T00:36:25.542Z,98589.00
2024-02-26T00:38:52.459Z,98590.59
2024-02-26T00:41:20.046Z,98595.56
2024-02-26T00:43:47.613Z,98595.56
2024-02-26T00:46:14.433Z,98584.44
2024-02-26T00:48:41.221Z,98590.31
2024-02-26T00:51:08.930Z,98594.75
2024-02-26T00:53:35.861Z,98598.75
2024-02-26T00:56:02.797Z,98599.59
2024-02-26T00:58:29.580Z,98588.41
2024-02-26T01:00:56.563Z,98597.03
2024-02-26T01:03:23.688Z,98602.69
2024-02-26T01:05:50.627Z,98601.00
2024-02-26T01:08:17.777Z,98606.81
2024-02-26T01:10:44.516Z,98610.66
2024-02-26T01:13:12.721Z,98607.50
2024-02-26T01:15:39.440Z,98610.44
2024-02-26T01:18:06.164Z,98613.91
2024-02-26T01:20:33.000Z,98611.22
2024-02-26T01:22:59.721Z,98614.41
2024-02-26T01:25:26.472Z,98611.06
2024-02-26T01:27:53.227Z,98605.81
2024-02-26T01:30:20.207Z,98621.84
2024-02-26T01:32:47.216Z,98620.94
2024-02-26T01:35:13.946Z,98622.19
2024-02-26T01:37:41.408Z,98633.28
2024-02-26T01:40:08.774Z,98640.38
2024-02-26T01:42:35.642Z,98631.06
2024-02-26T01:45:02.799Z,98636.03
2024-02-26T01:47:31.497Z,98636.56
2024-02-26T01:49:58.797Z,98639.00
2024-02-26T01:52:25.639Z,98633.75
2024-02-26T01:54:52.470Z,98643.06
2024-02-26T01:57:19.562Z,98641.06
2024-02-26T01:59:46.616Z,98648.34
2024-02-26T02:02:16.072Z,98651.75
2024-02-26T02:04:43.035Z,98645.25
2024-02-26T02:07:10.090Z,98648.63
2024-02-26T02:09:37.427Z,98645.75
2024-02-26T02:12:04.625Z,98644.31
2024-02-26T02:14:33.410Z,98659.03
2024-02-26T02:17:00.219Z,98651.97
2024-02-26T02:19:27.195Z,98659.84
2024-02-26T02:21:54.106Z,98652.03
2024-02-26T02:24:21.146Z,98654.53
2024-02-26T02:26:48.063Z,98653.84
2024-02-26T02:29:15.986Z,98650.81
2024-02-26T02:31:43.263Z,98657.13
2024-02-26T02:34:10.864Z,98645.94
2024-02-26T02:36:50.094Z,98654.81
2024-02-26T02:39:16.984Z,98648.13
2024-02-26T02:41:43.890Z,98645.63
2024-02-26T02:44:10.802Z,98651.34
2024-02-26T02:46:38.348Z,98647.06
2024-02-26T02:49:05.295Z,98658.97
2024-02-26T02:51:32.068Z,98660.38
2024-02-26T02:53:58.725Z,98659.19
2024-02-26T02:56:25.600Z,98664.50
2024-02-26T02:58:52.576Z,98663.94
2024-02-26T03:01:19.266Z,98664.75
2024-02-26T03:03:46.333Z,98667.53
2024-02-26T03:06:13.107Z,98666.47
2024-02-26T03:08:40.754Z,98662.31
2024-02-26T03:11:07.556Z,98656.56
2024-02-26T03:13:34.382Z,98661.69
2024-02-26T03:16:06.172Z,98659.38
2024-02-26T03:18:33.291Z,98655.63
2024-02-26T03:21:00.074Z,98663.34
2024-02-26T03:23:26.804Z,98653.06
2024-02-26T03:25:53.526Z,98656.69
2024-02-26T03:28:20.326Z,98660.34
2024-02-26T03:30:47.030Z,98657.13
2024-02-26T03:33:13.957Z,98668.75
2024-02-26T03:35:41.020Z,98663.38
2024-02-26T03:38:07.821Z,98660.19
2024-02-26T03:40:34.529Z,98660.75
2024-02-26T03:43:01.445Z,98658.03
2024-02-26T03:45:29.296Z,98656.88
2024-02-26T03:47:56.357Z,98656.00
2024-02-26T03:50:23.393Z,98662.44
2024-02-26T03:52:50.085Z,98654.41
2024-02-26T03:55:16.820Z,98656.78
2024-02-26T03:57:44.834Z,98654.69
2024-02-26T04:00:12.470Z,98657.38
2024-02-26T04:02:39.600Z,98652.91
2024-02-26T04:05:09.957Z,98650.63
2024-02-26T04:07:36.869Z,98648.75
2024-02-26T04:10:07.065Z,98642.91
2024-02-26T04:12:33.937Z,98641.00
2024-02-26T04:15:00.720Z,98637.22
2024-02-26T04:17:27.855Z,98628.56
2024-02-26T04:19:54.623Z,98627.72
2024-02-26T04:22:21.365Z,98622.91
2024-02-26T04:24:48.162Z,98617.75
2024-02-26T04:27:15.211Z,98627.25
2024-02-26T04:29:42.338Z,98627.03
2024-02-26T04:32:09.091Z,98632.28
2024-02-26T04:34:36.168Z,98619.97
2024-02-26T04:37:04.397Z,98625.94
2024-02-26T04:39:31.066Z,98617.38
2024-02-26T04:41:57.836Z,98625.41
2024-02-26T04:44:24.588Z,98619.41
2024-02-26T04:46:51.248Z,98621.84
2024-02-26T04:49:18.019Z,98617.00
2024-02-26T04:51:44.823Z,98612.19
2024-02-26T04:54:11.659Z,98612.75
2024-02-26T04:56:38.566Z,98612.09
2024-02-26T04:59:05.319Z,98608.63
2024-02-26T05:01:32.273Z,98610.94
2024-02-26T05:03:59.229Z,98603.50
2024-02-26T05:06:26.154Z,98613.63
2024-02-26T05:08:53.306Z,98609.56
2024-02-26T05:11:20.218Z,98609.84
2024-02-26T05:13:47.131Z,98609.38
2024-02-26T05:16:14.949Z,98616.34
2024-02-26T05:18:41.832Z,98610.22
2024-02-26T05:21:08.904Z,98611.72
2024-02-26T05:23:35.701Z,98603.50
2024-02-26T05:26:02.394Z,98613.00
2024-02-26T05:28:29.575Z,98616.47
2024-02-26T05:30:56.327Z,98618.47
2024-02-26T05:33:24.419Z,98624.13
2024-02-26T05:35:51.334Z,98622.31
2024-02-26T05:38:18.048Z,98630.28
2024-02-26T05:40:45.586Z,98622.28
2024-02-26T05:43:12.527Z,98633.03
2024-02-26T05:45:39.342Z,98626.81
2024-02-26T05:48:06.379Z,98631.41
2024-02-26T05:50:33.516Z,98635.13
2024-02-26T05:53:00.231Z,98632.25
2024-02-26T05:55:27.163Z,98638.34
2024-02-26T05:57:54.954Z,98636.56
2024-02-26T06:00:22.050Z,98642.91
2024-02-26T06:02:48.934Z,98647.56
2024-02-26T06:05:15.888Z,98661.59
2024-02-26T06:07:42.732Z,98665.78
2024-02-26T06:10:10.057Z,98667.63
2024-02-26T06:12:37.226Z,98676.78
2024-02-26T06:15:05.550Z,98673.47
2024-02-26T06:17:33.136Z,98674.28
2024-02-26T06:20:02.632Z,98682.31
2024-02-26T06:22:31.157Z,98691.09
2024-02-26T06:24:57.902Z,98693.97
2024-02-26T06:27:25.301Z,98705.78
2024-02-26T06:29:53.371Z,98720.66
2024-02-26T06:32:24.071Z,98710.19
2024-02-26T06:34:50.819Z,98722.22
2024-02-26T06:37:19.126Z,98707.28
2024-02-26T06:39:46.179Z,98722.81
2024-02-26T06:42:13.335Z,98721.97
2024-02-26T06:44:40.207Z,98727.31
2024-02-26T06:47:06.947Z,98731.09
2024-02-26T06:49:33.728Z,98746.69
2024-02-26T06:52:00.417Z,98748.25
2024-02-26T06:54:27.221Z,98745.81
2024-02-26T06:56:54.288Z,98747.19
2024-02-26T06:59:21.448Z,98753.66
2024-02-26T07:01:48.214Z,98752.00
2024-02-26T07:04:15.074Z,98747.44
2024-02-26T07:06:42.707Z,98750.34
2024-02-26T07:09:09.694Z,98753.53
2024-02-26T07:11:36.469Z,98751.94
2024-02-26T07:14:03.443Z,98754.31
2024-02-26T07:16:30.235Z,98752.44
2024-02-26T07:18:57.343Z,98750.91
2024-02-26T07:21:24.201Z,98758.97
2024-02-26T07:23:51.096Z,98754.94
2024-02-26T07:26:19.881Z,98760.78
2024-02-26T07:28:46.758Z,98763.47
2024-02-26T07:31:14.090Z,98769.16
2024-02-26T07:33:40.991Z,98762.22
2024-02-26T07:36:07.955Z,98770.25
2024-02-26T07:38:42.531Z,98776.13
2024-02-26T07:41:11.270Z,98776.91
2024-02-26T07:43:38.143Z,98782.53
2024-02-26T07:46:05.081Z,98784.63
2024-02-26T07:48:32.063Z,98766.88
2024-02-26T07:51:01.115Z,98765.25
2024-02-26T07:53:28.009Z,98765.28
2024-02-26T07:55:54.871Z,98769.88
2024-02-26T07:58:21.653Z,98781.38
2024-02-26T08:00:48.391Z,98783.53
2024-02-26T08:03:16.867Z,98778.72
2024-02-26T08:05:44.458Z,98764.53
2024-02-26T08:08:11.417Z,98764.84
2024-02-26T08:10:38.152Z,98768.06
2024-02-26T08:13:07.774Z,98765.91
2024-02-26T08:15:35.940Z,98775.00
2024-02-26T08:18:06.001Z,98775.00
2024-02-26T08:20:33.202Z,98788.97
2024-02-26T08:23:00.178Z,98784.13
2024-02-26T08:25:27.608Z,98786.50
2024-02-26T08:27:54.310Z,98788.44
2024-02-26T08:30:21.143Z,98795.34
2024-02-26T08:32:51.603Z,98797.25
2024-02-26T08:35:20.146Z,98796.69
2024-02-26T08:37:48.111Z,98796.69
2024-02-26T08:40:16.199Z,98793.09
2024-02-26T08:42:43.562Z,98787.47
2024-02-26T08:45:11.071Z,98795.19
2024-02-26T08:47:38.275Z,98790.38
2024-02-26T08:50:06.362Z,98787.63
2024-02-26T08:52:34.408Z,98787.09
2024-02-26T08:55:01.407Z,98789.84
2024-02-26T08:57:29.030Z,98788.72
2024-02-26T08:59:55.995Z,98791.63
2024-02-26T09:02:25.598Z,98800.53
2024-02-26T09:04:54.863Z,98789.50
2024-02-26T09:07:23.326Z,98798.28
2024-02-26T09:09:50.302Z,98797.25
2024-02-26T09:12:17.120Z,98800.47
2024-02-26T09:14:46.233Z,98806.06
2024-02-26T09:17:13.026Z,98806.06
2024-02-26T09:19:40.082Z,98805.31
2024-02-26T09:22:06.959Z,98807.94
2024-02-26T09:24:35.153Z,98814.31
2024-02-26T09:27:02.069Z,98810.00
2024-02-26T09:29:29.022Z,98820.69
2024-02-26T09:31:56.370Z,98827.13
2024-02-26T09:34:23.196Z,98821.47
2024-02-26T09:36:49.977Z,98826.84
2024-02-26T09:39:21.603Z,98824.84
2024-02-26T09:41:49.957Z,98829.16
2024-02-26T09:44:23.438Z,98836.41
2024-02-26T09:46:53.782Z,98836.91
2024-02-26T09:49:22.952Z,98832.28
2024-02-26T09:51:51.234Z,98837.22
2024-02-26T09:54:18.977Z,98854.91
2024-02-26T09:56:59.572Z,98858.22
2024-02-26T09:59:37.635Z,98858.25
2024-02-26T10:02:11.848Z,98853.31
2024-02-26T10:04:40.617Z,98859.19
2024-02-26T10:07:13.135Z,98848.22
2024-02-26T10:09:40.999Z,98847.06
2024-02-26T10:12:11.158Z,98842.13
2024-02-26T10:14:38.054Z,98849.66
2024-02-26T10:17:09.560Z,98848.03
2024-02-26T10:19:38.726Z,98853.00
2024-02-26T10:22:06.709Z,98847.75
2024-02-26T10:24:35.640Z,98854.75
2024-02-26T10:27:04.554Z,98856.16
2024-02-26T10:29:32.618Z,98851.75
2024-02-26T10:31:59.366Z,98846.69
2024-02-26T10:34:27.066Z,98858.59
2024-02-26T10:36:55.680Z,98861.59
2024-02-26T10:39:23.179Z,98859.22
2024-02-26T10:41:51.168Z,98847.25
2024-02-26T10:44:19.476Z,98855.69
2024-02-26T10:46:50.773Z,98845.47
2024-02-26T10:49:21.610Z,98852.63
2024-02-26T10:51:55.682Z,98857.88
2024-02-26T10:54:24.955Z,98869.59
2024-02-26T10:56:52.863Z,98874.47
2024-02-26T10:59:21.963Z,98874.59
2024-02-26T11:01:50.400Z,98872.66
2024-02-26T11:04:18.593Z,98868.00
2024-02-26T11:06:50.812Z,98871.19
2024-02-26T11:09:18.687Z,98877.69
2024-02-26T11:11:46.209Z,98887.56
2024-02-26T11:14:15.011Z,98886.63
2024-02-26T11:16:43.869Z,98885.47
2024-02-26T11:19:13.243Z,98880.72
2024-02-26T11:21:46.605Z,98891.38
2024-02-26T11:24:15.767Z,98887.44
2024-02-26T11:26:49.319Z,98886.09
2024-02-26T11:29:20.700Z,98888.78
2024-02-26T11:31:48.160Z,98888.16
2024-02-26T11:34:15.642Z,98883.06
2024-02-26T11:36:43.497Z,98889.63
2024-02-26T11:39:13.823Z,98896.63
2024-02-26T11:41:40.716Z,98888.66
2024-02-26T11:44:08.312Z,98887.22
2024-02-26T11:46:43.841Z,98890.72
2024-02-26T11:49:40.420Z,98890.13
2024-02-26T11:52:09.554Z,98896.91
2024-02-26T11:54:45.126Z,98891.16
2024-02-26T11:57:34.854Z,98901.13
2024-02-26T12:00:08.280Z,98893.03
2024-02-26T12:02:42.213Z,98892.78
2024-02-26T12:05:25.749Z,98897.50
2024-02-26T12:08:00.378Z,98894.97
2024-02-26T12:10:27.412Z,98900.47
2024-02-26T12:13:00.895Z,98902.38
2024-02-26T12:15:33.926Z,98909.16
2024-02-26T12:18:06.212Z,98900.34
2024-02-26T12:20:33.375Z,98894.66
2024-02-26T12:23:00.482Z,98900.13
2024-02-26T12:25:29.438Z,98913.00
2024-02-26T12:27:56.826Z,98921.56
2024-02-26T12:30:23.953Z,98929.56
2024-02-26T12:32:52.328Z,98921.34
2024-02-26T12:35:19.341Z,98915.75
2024-02-26T12:37:47.424Z,98915.97
2024-02-26T12:40:15.016Z,98910.19
2024-02-26T12:42:42.385Z,98915.50
2024-02-26T12:45:11.453Z,98904.28
2024-02-26T12:47:39.246Z,98900.19
2024-02-26T12:50:09.482Z,98909.38
2024-02-26T12:52:40.253Z,98906.97
2024-02-26T12:55:10.776Z,98912.09
2024-02-26T12:57:44.827Z,98915.13
2024-02-26T13:00:17.914Z,98917.59
2024-02-26T13:02:46.276Z,98923.50
2024-02-26T13:05:15.462Z,98923.31
2024-02-26T13:07:48.164Z,98927.34
2024-02-26T13:10:15.681Z,98921.34
2024-02-26T13:12:46.603Z,98919.22
2024-02-26T13:15:21.382Z,98926.00
2024-02-26T13:17:49.555Z,98924.31
2024-02-26T13:20:30.561Z,98932.09
2024-02-26T13:23:07.918Z,98939.19
2024-02-26T13:25:36.973Z,98941.03
2024-02-26T13:28:11.098Z,98953.06
2024-02-26T13:30:38.239Z,98944.56
2024-02-26T13:33:12.937Z,98951.22
2024-02-26T13:35:40.811Z,98943.78
2024-02-26T13:38:07.636Z,98948.00
2024-02-26T13:40:35.708Z,98955.00
2024-02-26T13:43:02.525Z,98958.50
2024-02-26T13:45:32.329Z,98963.72
2024-02-26T13:48:12.325Z,98964.34
2024-02-26T13:50:46.983Z,98955.72
2024-02-26T13:53:14.627Z,98954.06
2024-02-26T13:55:45.091Z,98957.25
2024-02-26T13:58:14.701Z,98952.25
2024-02-26T14:00:43.796Z,98958.44
2024-02-26T14:03:11.531Z,98954.13
2024-02-26T14:05:38.485Z,98955.63
2024-02-26T14:08:05.972Z,98950.44
2024-02-26T14:10:33.335Z,98950.84
2024-02-26T14:13:00.778Z,98954.75
2024-02-26T14:15:30.046Z,98966.06
2024-02-26T14:17:58.016Z,98980.09
2024-02-26T14:20:26.297Z,98978.97
2024-02-26T14:22:54.431Z,98977.97
2024-02-26T14:25:22.922Z,98978.47
2024-02-26T14:27:49.852Z,98974.75
2024-02-26T14:30:16.888Z,98972.25
2024-02-26T14:32:45.018Z,98970.25
2024-02-26T14:35:15.217Z,98970.31
2024-02-26T14:37:49.973Z,98962.22
2024-02-26T14:40:17.434Z,98978.50
2024-02-26T14:42:45.600Z,98970.84
2024-02-26T14:45:13.068Z,98973.13
2024-02-26T14:47:41.252Z,98972.13
2024-02-26T14:50:08.893Z,98962.94
2024-02-26T14:52:35.830Z,98974.75
2024-02-26T14:55:02.535Z,98970.53
2024-02-26T14:57:30.997Z,98967.34
2024-02-26T14:59:57.873Z,98972.25
2024-02-26T15:02:24.858Z,98973.34
2024-02-26T15:04:51.703Z,98969.50
2024-02-26T15:07:21.400Z,98965.72
2024-02-26T15:09:48.540Z,98975.34
2024-02-26T15:12:16.563Z,98970.56
2024-02-26T15:14:43.665Z,98983.31
2024-02-26T15:17:11.979Z,98976.72
2024-02-26T15:19:39.073Z,98982.41
2024-02-26T15:22:06.405Z,98977.63
2024-02-26T15:24:33.508Z,98982.69
2024-02-26T15:27:00.618Z,98983.81
2024-02-26T15:29:27.954Z,98992.41
2024-02-26T15:31:54.919Z,98992.75
2024-02-26T15:34:21.950Z,98996.44
2024-02-26T15:36:49.061Z,98999.94
2024-02-26T15:39:15.914Z,99007.16
2024-02-26T15:41:42.697Z,99014.31
2024-02-26T15:44:09.414Z,99013.31
2024-02-26T15:46:41.529Z,99010.59
2024-02-26T15:49:11.240Z,99021.09
2024-02-26T15:51:39.787Z,99024.81
2024-02-26T15:54:06.631Z,99023.91
2024-02-26T15:56:33.622Z,99031.31
2024-02-26T15:59:00.753Z,99024.44
2024-02-26T16:01:29.800Z,99034.44
2024-02-26T16:03:58.955Z,99036.34
2024-02-26T16:06:44.871Z,99032.16
2024-02-26T16:09:11.863Z,99033.56
2024-02-26T16:11:38.877Z,99037.81
2024-02-26T16:14:37.856Z,99033.78
2024-02-26T16:17:35.337Z,99038.91
2024-02-26T16:20:05.380Z,99038.19
2024-02-26T16:22:37.191Z,99043.88
2024-02-26T16:25:04.966Z,99052.53
2024-02-26T16:27:31.770Z,99046.94
2024-02-26T16:30:01.596Z,99053.72
2024-02-26T16:32:31.447Z,99058.03
2024-02-26T16:35:00.730Z,99059.75
2024-02-26T16:37:28.514Z,99065.25
2024-02-26T16:39:59.339Z,99078.56
2024-02-26T16:42:27.239Z,99071.16
2024-02-26T16:44:57.110Z,99070.97
2024-02-26T16:47:24.093Z,99078.81
2024-02-26T16:49:50.796Z,99086.09
2024-02-26T16:52:17.507Z,99087.19
2024-02-26T16:54:44.317Z,99087.84
2024-02-26T16:57:11.493Z,99096.91
2024-02-26T16:59:38.776Z,99113.72
2024-02-26T17:02:06.060Z,99107.41
2024-02-26T17:04:33.588Z,99104.03
2024-02-26T17:07:01.762Z,99115.19
2024-02-26T17:09:28.610Z,99119.81
2024-02-26T17:11:56.027Z,99127.84
2024-02-26T17:14:23.858Z,99119.00
2024-02-26T17:16:51.839Z,99126.22
2024-02-26T17:19:19.158Z,99137.41
2024-02-26T17:21:45.858Z,99135.34
2024-02-26T17:24:12.960Z,99134.75
2024-02-26T17:26:39.853Z,99143.72
2024-02-26T17:29:07.024Z,99152.00
2024-02-26T17:31:38.358Z,99145.53
2024-02-26T17:34:05.289Z,99151.44
2024-02-26T17:36:32.347Z,99160.28
2024-02-26T17:38:59.375Z,99166.94
2024-02-26T17:41:26.410Z,99174.63
2024-02-26T17:43:55.879Z,99178.53
2024-02-26T17:46:22.814Z,99190.41
2024-02-26T17:48:51.078Z,99195.47
2024-02-26T17:51:17.927Z,99198.50
2024-02-26T17:53:44.902Z,99205.94
2024-02-26T17:56:11.642Z,99209.75
2024-02-26T17:58:41.989Z,99207.91
2024-02-26T18:01:10.219Z,99209.22
2024-02-26T18:03:37.213Z,99216.13
2024-02-26T18:06:05.469Z,99227.59
2024-02-26T18:08:34.821Z,99222.75
2024-02-26T18:11:02.974Z,99226.53
2024-02-26T18:13:30.042Z,99240.59
2024-02-26T18:15:58.515Z,99236.25
2024-02-26T18:18:27.209Z,99242.50
2024-02-26T18:20:54.710Z,99254.66
2024-02-26T18:23:24.069Z,99255.69
2024-02-26T18:25:50.802Z,99257.84
2024-02-26T18:28:19.418Z,99265.94
2024-02-26T18:30:48.006Z,99268.13
2024-02-26T18:33:15.471Z,99267.66
2024-02-26T18:35:42.706Z,99274.25
2024-02-26T18:38:09.764Z,99270.75
2024-02-26T18:40:36.866Z,99279.22
2024-02-26T18:43:05.369Z,99282.41
2024-02-26T18:45:32.773Z,99284.41
2024-02-26T18:47:59.998Z,99295.69
2024-02-26T18:50:26.997Z,99299.47
2024-02-26T18:52:54.019Z,99310.41
2024-02-26T18:55:20.951Z,99303.78
2024-02-26T18:57:49.034Z,99306.94
2024-02-26T19:00:16.909Z,99314.03
2024-02-26T19:02:44.301Z,99315.09
2024-02-26T19:05:12.444Z,99326.69
2024-02-26T19:07:40.538Z,99326.06
2024-02-26T19:10:09.445Z,99332.88
2024-02-26T19:12:36.323Z,99336.13
2024-02-26T19:15:03.611Z,99340.47
2024-02-26T19:17:30.943Z,99341.25
2024-02-26T19:20:00.881Z,99348.47
2024-02-26T19:22:28.086Z,99338.31
2024-02-26T19:24:55.006Z,99339.94
2024-02-26T19:27:22.090Z,99340.75
2024-02-26T19:29:48.909Z,99348.84
2024-02-26T19:32:15.897Z,99347.00
2024-02-26T19:34:46.900Z,99354.22
2024-02-26T19:37:14.506Z,99358.84
2024-02-26T19:39:41.387Z,99359.97
2024-02-26T19:42:08.639Z,99368.09
2024-02-26T19:44:35.384Z,99369.66
2024-02-26T19:47:02.285Z,99372.88
2024-02-26T19:49:29.695Z,99380.19
2024-02-26T19:51:56.781Z,99377.25
2024-02-26T19:54:23.569Z,99389.59
2024-02-26T19:56:52.191Z,99383.41
2024-02-26T19:59:20.228Z,99394.13
2024-02-26T20:01:47.163Z,99396.31
2024-02-26T20:04:15.145Z,99403.84
2024-02-26T20:06:42.979Z,99403.03
2024-02-26T20:09:09.868Z,99409.44
2024-02-26T20:11:40.813Z,99410.81
2024-02-26T20:14:12.354Z,99413.28
2024-02-26T20:16:39.566Z,99419.75
2024-02-26T20:19:12.703Z,99418.94
2024-02-26T20:21:40.853Z,99427.84
2024-02-26T20:24:08.812Z,99433.75
2024-02-26T20:26:39.760Z,99439.13
2024-02-26T20:29:07.284Z,99445.56
2024-02-26T20:31:34.097Z,99456.88
2024-02-26T20:34:02.477Z,99458.50
2024-02-26T20:36:32.085Z,99456.91
2024-02-26T20:38:58.785Z,99470.34
2024-02-26T20:41:26.557Z,99471.41
2024-02-26T20:43:53.607Z,99465.78
2024-02-26T20:46:20.503Z,99480.56
2024-02-26T20:48:47.688Z,99481.09
2024-02-26T20:51:14.586Z,99476.78
2024-02-26T20:53:42.653Z,99480.81
2024-02-26T20:56:09.494Z,99480.03
2024-02-26T20:58:37.116Z,99486.19
2024-02-26T21:01:04.362Z,99487.03
2024-02-26T21:03:31.166Z,99486.75
2024-02-26T21:05:58.153Z,99480.31
2024-02-26T21:08:32.812Z,99483.28
2024-02-26T21:11:06.197Z,99497.50
2024-02-26T21:13:34.094Z,99498.31
2024-02-26T21:16:01.473Z,99504.50
2024-02-26T21:18:28.654Z,99500.19
2024-02-26T21:20:58.623Z,99509.94
2024-02-26T21:23:26.040Z,99515.59
2024-02-26T21:25:53.021Z,99511.50
2024-02-26T21:28:20.022Z,99526.03
2024-02-26T21:30:46.926Z,99526.84
2024-02-26T21:33:14.307Z,99520.91
2024-02-26T21:35:41.696Z,99531.16
2024-02-26T21:38:10.277Z,99530.59
2024-02-26T21:40:37.780Z,99528.69
2024-02-26T21:43:04.821Z,99526.81
2024-02-26T21:45:31.944Z,99534.09
2024-02-26T21:47:58.924Z,99529.25
2024-02-26T21:50:25.949Z,99526.28
2024-02-26T21:52:52.862Z,99536.47
2024-02-26T21:55:20.861Z,99530.59
2024-02-26T21:57:47.569Z,99539.22
2024-02-26T22:00:15.188Z,99542.72
2024-02-26T22:02:42.535Z,99542.44
2024-02-26T22:05:09.946Z,99551.53
2024-02-26T22:07:37.374Z,99558.81
2024-02-26T22:10:05.159Z,99567.94
2024-02-26T22:12:31.945Z,99572.50
2024-02-26T22:14:58.830Z,99578.69
2024-02-26T22:17:25.708Z,99580.03
2024-02-26T22:19:52.690Z,99585.97
2024-02-26T22:22:20.033Z,99583.03
2024-02-26T22:24:46.713Z,99578.47
2024-02-26T22:27:13.490Z,99587.09
2024-02-26T22:29:40.260Z,99593.03
2024-02-26T22:32:07.292Z,99597.31
2024-02-26T22:34:34.214Z,99602.13
2024-02-26T22:37:00.999Z,99603.72
2024-02-26T22:39:27.978Z,99605.28
2024-02-26T22:41:55.912Z,99605.28
2024-02-26T22:44:22.660Z,99603.66
2024-02-26T22:46:49.437Z,99611.94
2024-02-26T22:49:16.238Z,99610.09
2024-02-26T22:51:43.540Z,99618.41
2024-02-26T22:54:10.440Z,99626.19
2024-02-26T22:56:38.861Z,99629.19
2024-02-26T22:59:06.207Z,99635.06
2024-02-26T23:01:33.672Z,99631.56
2024-02-26T23:04:00.731Z,99634.84
2024-02-26T23:06:27.736Z,99635.59
2024-02-26T23:08:54.481Z,99642.78
2024-02-26T23:11:21.606Z,99645.91
2024-02-26T23:13:48.700Z,99650.78
2024-02-26T23:16:15.791Z,99648.94
2024-02-26T23:18:42.853Z,99644.59
2024-02-26T23:21:09.656Z,99643.78
2024-02-26T23:23:36.729Z,99639.38
2024-02-26T23:26:04.693Z,99635.66
2024-02-26T23:28:31.697Z,99632.22
2024-02-26T23:30:58.498Z,99628.66
2024-02-26T23:33:25.532Z,99637.53
2024-02-26T23:35:52.738Z,99627.38
2024-02-26T23:38:19.702Z,99636.56
2024-02-26T23:40:46.366Z,99636.06
2024-02-26T23:43:13.151Z,99637.84
2024-02-26T23:45:40.258Z,99633.06
2024-02-26T23:48:07.693Z,99648.41
2024-02-26T23:50:35.859Z,99654.44
2024-02-26T23:53:05.086Z,99655.25
2024-02-26T23:55:33.306Z,99667.56
2024-02-26T23:58:00.322Z,99667.50
